sensor_id;sensor_type;location;lat;lon;timestamp;P1;durP1;ratioP1;P2;durP2;ratioP2
53873;SDS011;62246;50.938;4.058;2022-09-28T00:01:45;9.00;;;3.65;;
53873;SDS011;62246;50.938;4.058;2022-09-28T00:04:11;10.00;;;3.30;;
53873;SDS011;62246;50.938;4.058;2022-09-28T00:06:36;11.05;;;3.58;;
53873;SDS011;62246;50.938;4.058;2022-09-28T00:09:03;7.75;;;2.83;;
53873;SDS011;62246;50.938;4.058;2022-09-28T00:11:28;5.93;;;2.70;;
53873;SDS011;62246;50.938;4.058;2022-09-28T00:13:56;8.43;;;2.30;;
53873;SDS011;62246;50.938;4.058;2022-09-28T00:16:26;4.50;;;2.08;;
53873;SDS011;62246;50.938;4.058;2022-09-28T00:18:55;4.10;;;1.85;;
53873;SDS011;62246;50.938;4.058;2022-09-28T00:21:22;6.28;;;1.85;;
53873;SDS011;62246;50.938;4.058;2022-09-28T00:23:52;9.50;;;3.13;;
53873;SDS011;62246;50.938;4.058;2022-09-28T00:26:38;11.98;;;3.20;;
53873;SDS011;62246;50.938;4.058;2022-09-28T00:29:13;12.77;;;3.05;;
53873;SDS011;62246;50.938;4.058;2022-09-28T00:31:44;10.93;;;3.58;;
53873;SDS011;62246;50.938;4.058;2022-09-28T00:34:10;7.50;;;2.10;;
53873;SDS011;62246;50.938;4.058;2022-09-28T00:36:36;6.55;;;2.20;;
53873;SDS011;62246;50.938;4.058;2022-09-28T00:39:03;8.73;;;2.28;;
53873;SDS011;62246;50.938;4.058;2022-09-28T00:41:30;8.02;;;2.08;;
53873;SDS011;62246;50.938;4.058;2022-09-28T00:46:46;5.75;;;2.20;;
53873;SDS011;62246;50.938;4.058;2022-09-28T00:49:14;5.47;;;2.22;;
53873;SDS011;62246;50.938;4.058;2022-09-28T00:51:42;5.53;;;2.40;;
53873;SDS011;62246;50.938;4.058;2022-09-28T00:54:09;7.50;;;2.50;;
53873;SDS011;62246;50.938;4.058;2022-09-28T00:56:36;7.95;;;2.33;;
53873;SDS011;62246;50.938;4.058;2022-09-28T00:59:05;9.35;;;2.42;;
53873;SDS011;62246;50.938;4.058;2022-09-28T01:01:32;10.68;;;2.58;;
53873;SDS011;62246;50.938;4.058;2022-09-28T01:03:58;7.40;;;2.25;;
53873;SDS011;62246;50.938;4.058;2022-09-28T01:06:28;7.15;;;2.38;;
53873;SDS011;62246;50.938;4.058;2022-09-28T01:08:57;7.53;;;2.60;;
53873;SDS011;62246;50.938;4.058;2022-09-28T01:11:27;12.60;;;3.10;;
53873;SDS011;62246;50.938;4.058;2022-09-28T01:13:55;7.40;;;3.10;;
53873;SDS011;62246;50.938;4.058;2022-09-28T01:16:41;8.48;;;3.03;;
53873;SDS011;62246;50.938;4.058;2022-09-28T01:27:27;7.85;;;2.63;;
53873;SDS011;62246;50.938;4.058;2022-09-28T01:30:05;7.15;;;2.90;;
53873;SDS011;62246;50.938;4.058;2022-09-28T01:38:24;8.35;;;3.60;;
53873;SDS011;62246;50.938;4.058;2022-09-28T01:40:54;9.82;;;3.00;;
53873;SDS011;62246;50.938;4.058;2022-09-28T01:43:26;10.88;;;3.80;;
53873;SDS011;62246;50.938;4.058;2022-09-28T01:45:58;7.88;;;3.25;;
53873;SDS011;62246;50.938;4.058;2022-09-28T01:48:35;8.15;;;3.38;;
53873;SDS011;62246;50.938;4.058;2022-09-28T01:51:07;7.90;;;3.92;;
53873;SDS011;62246;50.938;4.058;2022-09-28T01:53:38;9.37;;;3.73;;
53873;SDS011;62246;50.938;4.058;2022-09-28T01:56:08;10.52;;;3.70;;
53873;SDS011;62246;50.938;4.058;2022-09-28T01:58:49;9.88;;;4.00;;
53873;SDS011;62246;50.938;4.058;2022-09-28T02:01:28;6.53;;;3.05;;
53873;SDS011;62246;50.938;4.058;2022-09-28T02:04:07;12.48;;;3.88;;
53873;SDS011;62246;50.938;4.058;2022-09-28T02:07:12;14.30;;;3.88;;
53873;SDS011;62246;50.938;4.058;2022-09-28T02:09:38;14.45;;;5.00;;
53873;SDS011;62246;50.938;4.058;2022-09-28T02:12:09;13.75;;;5.32;;
53873;SDS011;62246;50.938;4.058;2022-09-28T02:14:44;10.95;;;4.28;;
53873;SDS011;62246;50.938;4.058;2022-09-28T02:17:13;8.27;;;3.95;;
53873;SDS011;62246;50.938;4.058;2022-09-28T02:19:40;9.27;;;2.60;;
53873;SDS011;62246;50.938;4.058;2022-09-28T02:27:14;6.45;;;2.47;;
53873;SDS011;62246;50.938;4.058;2022-09-28T02:29:45;5.00;;;2.53;;
53873;SDS011;62246;50.938;4.058;2022-09-28T02:32:11;6.05;;;3.15;;
53873;SDS011;62246;50.938;4.058;2022-09-28T02:34:36;9.32;;;2.80;;
53873;SDS011;62246;50.938;4.058;2022-09-28T02:37:02;9.30;;;2.95;;
53873;SDS011;62246;50.938;4.058;2022-09-28T02:39:27;5.93;;;2.58;;
53873;SDS011;62246;50.938;4.058;2022-09-28T02:44:49;6.55;;;2.50;;
53873;SDS011;62246;50.938;4.058;2022-09-28T02:47:28;4.55;;;2.20;;
53873;SDS011;62246;50.938;4.058;2022-09-28T03:04:51;7.80;;;3.17;;
53873;SDS011;62246;50.938;4.058;2022-09-28T03:09:54;7.30;;;2.72;;
53873;SDS011;62246;50.938;4.058;2022-09-28T03:12:25;12.90;;;3.20;;
53873;SDS011;62246;50.938;4.058;2022-09-28T03:15:10;8.70;;;3.10;;
53873;SDS011;62246;50.938;4.058;2022-09-28T03:17:38;12.02;;;3.40;;
53873;SDS011;62246;50.938;4.058;2022-09-28T03:20:04;9.05;;;2.92;;
53873;SDS011;62246;50.938;4.058;2022-09-28T03:22:30;9.25;;;3.50;;
53873;SDS011;62246;50.938;4.058;2022-09-28T03:24:55;8.45;;;3.50;;
53873;SDS011;62246;50.938;4.058;2022-09-28T03:27:21;8.27;;;3.45;;
53873;SDS011;62246;50.938;4.058;2022-09-28T03:29:46;10.60;;;3.90;;
53873;SDS011;62246;50.938;4.058;2022-09-28T03:32:12;8.98;;;3.72;;
53873;SDS011;62246;50.938;4.058;2022-09-28T03:34:37;6.65;;;3.40;;
53873;SDS011;62246;50.938;4.058;2022-09-28T03:37:03;11.77;;;4.30;;
53873;SDS011;62246;50.938;4.058;2022-09-28T03:39:28;6.53;;;3.25;;
53873;SDS011;62246;50.938;4.058;2022-09-28T03:41:54;6.05;;;3.28;;
53873;SDS011;62246;50.938;4.058;2022-09-28T03:44:20;7.53;;;3.78;;
53873;SDS011;62246;50.938;4.058;2022-09-28T03:46:45;10.48;;;4.25;;
53873;SDS011;62246;50.938;4.058;2022-09-28T03:49:11;9.95;;;3.75;;
53873;SDS011;62246;50.938;4.058;2022-09-28T03:51:36;7.70;;;3.58;;
53873;SDS011;62246;50.938;4.058;2022-09-28T03:54:02;6.68;;;3.72;;
53873;SDS011;62246;50.938;4.058;2022-09-28T03:56:27;8.50;;;3.63;;
53873;SDS011;62246;50.938;4.058;2022-09-28T03:58:53;7.63;;;3.78;;
53873;SDS011;62246;50.938;4.058;2022-09-28T04:01:19;9.10;;;4.13;;
53873;SDS011;62246;50.938;4.058;2022-09-28T04:03:44;9.68;;;4.82;;
53873;SDS011;62246;50.938;4.058;2022-09-28T04:06:11;12.80;;;4.40;;
53873;SDS011;62246;50.938;4.058;2022-09-28T04:08:37;9.75;;;4.60;;
53873;SDS011;62246;50.938;4.058;2022-09-28T04:11:02;10.07;;;4.57;;
53873;SDS011;62246;50.938;4.058;2022-09-28T04:13:28;10.75;;;4.57;;
53873;SDS011;62246;50.938;4.058;2022-09-28T04:15:54;7.95;;;4.50;;
53873;SDS011;62246;50.938;4.058;2022-09-28T04:18:21;8.60;;;4.75;;
53873;SDS011;62246;50.938;4.058;2022-09-28T04:20:56;12.52;;;5.20;;
53873;SDS011;62246;50.938;4.058;2022-09-28T04:23:27;10.57;;;5.15;;
53873;SDS011;62246;50.938;4.058;2022-09-28T04:25:54;36.20;;;6.57;;
53873;SDS011;62246;50.938;4.058;2022-09-28T04:28:19;11.23;;;5.57;;
53873;SDS011;62246;50.938;4.058;2022-09-28T04:31:06;7.05;;;4.43;;
53873;SDS011;62246;50.938;4.058;2022-09-28T04:33:33;11.00;;;4.70;;
53873;SDS011;62246;50.938;4.058;2022-09-28T04:35:59;9.07;;;4.75;;
53873;SDS011;62246;50.938;4.058;2022-09-28T04:38:24;8.50;;;4.75;;
53873;SDS011;62246;50.938;4.058;2022-09-28T04:40:51;9.75;;;5.05;;
53873;SDS011;62246;50.938;4.058;2022-09-28T04:43:17;8.02;;;4.65;;
53873;SDS011;62246;50.938;4.058;2022-09-28T04:45:42;10.57;;;4.40;;
53873;SDS011;62246;50.938;4.058;2022-09-28T04:48:08;10.82;;;4.72;;
53873;SDS011;62246;50.938;4.058;2022-09-28T04:50:33;8.63;;;4.40;;
53873;SDS011;62246;50.938;4.058;2022-09-28T04:53:02;8.48;;;4.95;;
53873;SDS011;62246;50.938;4.058;2022-09-28T04:55:27;13.18;;;5.38;;
53873;SDS011;62246;50.938;4.058;2022-09-28T04:57:56;11.63;;;5.68;;
53873;SDS011;62246;50.938;4.058;2022-09-28T05:00:28;9.80;;;5.03;;
53873;SDS011;62246;50.938;4.058;2022-09-28T05:02:59;8.13;;;4.83;;
53873;SDS011;62246;50.938;4.058;2022-09-28T05:05:24;11.15;;;5.40;;
53873;SDS011;62246;50.938;4.058;2022-09-28T05:07:50;8.73;;;5.18;;
53873;SDS011;62246;50.938;4.058;2022-09-28T05:10:15;11.32;;;5.38;;
53873;SDS011;62246;50.938;4.058;2022-09-28T05:12:42;13.07;;;5.90;;
53873;SDS011;62246;50.938;4.058;2022-09-28T05:15:08;7.97;;;4.80;;
53873;SDS011;62246;50.938;4.058;2022-09-28T05:17:33;15.77;;;5.63;;
53873;SDS011;62246;50.938;4.058;2022-09-28T05:19:59;10.02;;;4.60;;
53873;SDS011;62246;50.938;4.058;2022-09-28T05:22:26;9.32;;;4.35;;
53873;SDS011;62246;50.938;4.058;2022-09-28T05:24:52;11.68;;;5.25;;
53873;SDS011;62246;50.938;4.058;2022-09-28T05:27:18;9.77;;;5.15;;
53873;SDS011;62246;50.938;4.058;2022-09-28T05:29:44;10.25;;;5.93;;
53873;SDS011;62246;50.938;4.058;2022-09-28T05:32:09;9.90;;;5.10;;
53873;SDS011;62246;50.938;4.058;2022-09-28T05:34:35;10.75;;;5.90;;
53873;SDS011;62246;50.938;4.058;2022-09-28T05:37:00;10.85;;;5.55;;
53873;SDS011;62246;50.938;4.058;2022-09-28T05:39:26;10.82;;;5.70;;
53873;SDS011;62246;50.938;4.058;2022-09-28T05:41:51;10.40;;;4.93;;
53873;SDS011;62246;50.938;4.058;2022-09-28T05:44:16;13.05;;;5.63;;
53873;SDS011;62246;50.938;4.058;2022-09-28T05:46:42;24.38;;;7.35;;
53873;SDS011;62246;50.938;4.058;2022-09-28T05:49:07;12.48;;;5.93;;
53873;SDS011;62246;50.938;4.058;2022-09-28T05:51:33;16.40;;;6.68;;
53873;SDS011;62246;50.938;4.058;2022-09-28T05:53:58;15.90;;;6.55;;
53873;SDS011;62246;50.938;4.058;2022-09-28T05:56:23;13.02;;;6.15;;
53873;SDS011;62246;50.938;4.058;2022-09-28T05:58:49;12.80;;;7.50;;
53873;SDS011;62246;50.938;4.058;2022-09-28T06:01:14;11.70;;;6.40;;
53873;SDS011;62246;50.938;4.058;2022-09-28T06:03:40;15.15;;;6.57;;
53873;SDS011;62246;50.938;4.058;2022-09-28T06:06:05;15.57;;;8.18;;
53873;SDS011;62246;50.938;4.058;2022-09-28T06:08:31;13.23;;;7.53;;
53873;SDS011;62246;50.938;4.058;2022-09-28T06:11:00;13.23;;;7.80;;
53873;SDS011;62246;50.938;4.058;2022-09-28T06:13:26;16.92;;;8.68;;
53873;SDS011;62246;50.938;4.058;2022-09-28T06:15:52;14.25;;;7.72;;
53873;SDS011;62246;50.938;4.058;2022-09-28T06:18:18;13.80;;;7.72;;
53873;SDS011;62246;50.938;4.058;2022-09-28T06:20:44;14.38;;;7.10;;
53873;SDS011;62246;50.938;4.058;2022-09-28T06:23:09;16.60;;;8.77;;
53873;SDS011;62246;50.938;4.058;2022-09-28T06:25:36;18.60;;;9.45;;
53873;SDS011;62246;50.938;4.058;2022-09-28T06:28:03;16.13;;;7.88;;
53873;SDS011;62246;50.938;4.058;2022-09-28T06:30:30;14.68;;;7.95;;
53873;SDS011;62246;50.938;4.058;2022-09-28T06:32:59;14.95;;;8.38;;
53873;SDS011;62246;50.938;4.058;2022-09-28T06:35:28;15.48;;;8.35;;
53873;SDS011;62246;50.938;4.058;2022-09-28T06:37:55;16.73;;;9.63;;
53873;SDS011;62246;50.938;4.058;2022-09-28T06:40:22;17.40;;;9.68;;
53873;SDS011;62246;50.938;4.058;2022-09-28T06:45:24;16.63;;;9.32;;
53873;SDS011;62246;50.938;4.058;2022-09-28T06:47:51;20.83;;;9.75;;
53873;SDS011;62246;50.938;4.058;2022-09-28T06:50:24;19.02;;;9.15;;
53873;SDS011;62246;50.938;4.058;2022-09-28T06:52:56;17.92;;;9.93;;
53873;SDS011;62246;50.938;4.058;2022-09-28T06:55:23;20.83;;;10.60;;
53873;SDS011;62246;50.938;4.058;2022-09-28T06:58:01;22.48;;;10.50;;
53873;SDS011;62246;50.938;4.058;2022-09-28T07:00:29;21.08;;;10.40;;
53873;SDS011;62246;50.938;4.058;2022-09-28T07:02:58;22.63;;;10.50;;
53873;SDS011;62246;50.938;4.058;2022-09-28T07:05:25;19.38;;;9.68;;
53873;SDS011;62246;50.938;4.058;2022-09-28T07:08:00;21.77;;;10.77;;
53873;SDS011;62246;50.938;4.058;2022-09-28T07:10:27;19.83;;;10.38;;
53873;SDS011;62246;50.938;4.058;2022-09-28T07:12:54;21.67;;;10.23;;
53873;SDS011;62246;50.938;4.058;2022-09-28T07:15:20;18.98;;;9.90;;
53873;SDS011;62246;50.938;4.058;2022-09-28T07:17:46;20.17;;;9.07;;
53873;SDS011;62246;50.938;4.058;2022-09-28T07:20:12;22.20;;;10.05;;
53873;SDS011;62246;50.938;4.058;2022-09-28T07:22:38;18.23;;;8.73;;
53873;SDS011;62246;50.938;4.058;2022-09-28T07:25:05;18.13;;;8.80;;
53873;SDS011;62246;50.938;4.058;2022-09-28T07:27:31;17.27;;;8.13;;
53873;SDS011;62246;50.938;4.058;2022-09-28T07:29:56;14.68;;;7.70;;
53873;SDS011;62246;50.938;4.058;2022-09-28T07:32:22;13.52;;;7.95;;
53873;SDS011;62246;50.938;4.058;2022-09-28T07:34:48;13.43;;;7.78;;
53873;SDS011;62246;50.938;4.058;2022-09-28T07:37:14;15.98;;;7.10;;
53873;SDS011;62246;50.938;4.058;2022-09-28T07:39:42;17.08;;;7.10;;
53873;SDS011;62246;50.938;4.058;2022-09-28T07:42:27;14.27;;;7.28;;
53873;SDS011;62246;50.938;4.058;2022-09-28T07:44:53;14.93;;;6.82;;
53873;SDS011;62246;50.938;4.058;2022-09-28T07:47:20;16.05;;;6.72;;
53873;SDS011;62246;50.938;4.058;2022-09-28T07:49:51;12.00;;;6.32;;
53873;SDS011;62246;50.938;4.058;2022-09-28T07:52:19;19.20;;;7.38;;
53873;SDS011;62246;50.938;4.058;2022-09-28T07:54:47;12.38;;;6.35;;
53873;SDS011;62246;50.938;4.058;2022-09-28T07:57:16;15.30;;;6.28;;
53873;SDS011;62246;50.938;4.058;2022-09-28T07:59:42;14.95;;;6.35;;
53873;SDS011;62246;50.938;4.058;2022-09-28T08:02:08;14.77;;;6.65;;
53873;SDS011;62246;50.938;4.058;2022-09-28T08:04:34;9.93;;;5.20;;
53873;SDS011;62246;50.938;4.058;2022-09-28T08:07:00;15.60;;;5.70;;
53873;SDS011;62246;50.938;4.058;2022-09-28T08:09:27;12.27;;;6.07;;
53873;SDS011;62246;50.938;4.058;2022-09-28T08:11:53;12.35;;;5.20;;
53873;SDS011;62246;50.938;4.058;2022-09-28T08:14:19;12.05;;;5.72;;
53873;SDS011;62246;50.938;4.058;2022-09-28T08:16:44;10.93;;;5.50;;
53873;SDS011;62246;50.938;4.058;2022-09-28T08:19:10;12.43;;;5.97;;
53873;SDS011;62246;50.938;4.058;2022-09-28T08:21:36;12.38;;;5.43;;
53873;SDS011;62246;50.938;4.058;2022-09-28T08:24:14;13.98;;;6.00;;
53873;SDS011;62246;50.938;4.058;2022-09-28T08:26:40;12.60;;;5.45;;
53873;SDS011;62246;50.938;4.058;2022-09-28T08:29:07;13.23;;;4.93;;
53873;SDS011;62246;50.938;4.058;2022-09-28T08:31:33;13.90;;;5.40;;
53873;SDS011;62246;50.938;4.058;2022-09-28T08:33:58;15.82;;;4.97;;
53873;SDS011;62246;50.938;4.058;2022-09-28T08:36:24;11.35;;;4.22;;
53873;SDS011;62246;50.938;4.058;2022-09-28T08:38:49;11.90;;;4.22;;
53873;SDS011;62246;50.938;4.058;2022-09-28T08:46:50;11.25;;;4.68;;
53873;SDS011;62246;50.938;4.058;2022-09-28T08:52:12;10.95;;;4.00;;
53873;SDS011;62246;50.938;4.058;2022-09-28T08:54:56;12.65;;;4.10;;
53873;SDS011;62246;50.938;4.058;2022-09-28T08:57:45;11.32;;;4.28;;
53873;SDS011;62246;50.938;4.058;2022-09-28T09:00:22;8.13;;;3.53;;
53873;SDS011;62246;50.938;4.058;2022-09-28T09:02:57;9.23;;;3.38;;
53873;SDS011;62246;50.938;4.058;2022-09-28T09:05:23;11.77;;;3.60;;
53873;SDS011;62246;50.938;4.058;2022-09-28T09:10:49;9.05;;;3.40;;
53873;SDS011;62246;50.938;4.058;2022-09-28T09:13:47;8.38;;;3.30;;
53873;SDS011;62246;50.938;4.058;2022-09-28T09:30:16;8.82;;;2.72;;
53873;SDS011;62246;50.938;4.058;2022-09-28T09:33:06;11.40;;;2.70;;
53873;SDS011;62246;50.938;4.058;2022-09-28T09:47:08;6.15;;;1.98;;
53873;SDS011;62246;50.938;4.058;2022-09-28T09:49:50;8.63;;;2.88;;
53873;SDS011;62246;50.938;4.058;2022-09-28T09:57:28;8.10;;;2.78;;
53873;SDS011;62246;50.938;4.058;2022-09-28T09:59:59;12.82;;;3.10;;
53873;SDS011;62246;50.938;4.058;2022-09-28T10:02:28;11.55;;;3.40;;
53873;SDS011;62246;50.938;4.058;2022-09-28T10:04:58;10.75;;;3.47;;
53873;SDS011;62246;50.938;4.058;2022-09-28T10:07:52;12.82;;;2.97;;
53873;SDS011;62246;50.938;4.058;2022-09-28T10:10:33;11.00;;;3.15;;
53873;SDS011;62246;50.938;4.058;2022-09-28T10:13:01;11.15;;;3.33;;
53873;SDS011;62246;50.938;4.058;2022-09-28T10:15:28;13.27;;;3.40;;
53873;SDS011;62246;50.938;4.058;2022-09-28T10:17:56;13.80;;;3.13;;
53873;SDS011;62246;50.938;4.058;2022-09-28T10:20:25;9.38;;;2.50;;
53873;SDS011;62246;50.938;4.058;2022-09-28T10:22:55;6.55;;;1.70;;
53873;SDS011;62246;50.938;4.058;2022-09-28T10:25:26;6.15;;;1.70;;
53873;SDS011;62246;50.938;4.058;2022-09-28T10:27:52;5.85;;;1.50;;
53873;SDS011;62246;50.938;4.058;2022-09-28T10:30:20;11.93;;;1.95;;
53873;SDS011;62246;50.938;4.058;2022-09-28T10:32:52;5.35;;;1.48;;
53873;SDS011;62246;50.938;4.058;2022-09-28T10:35:27;6.88;;;1.80;;
53873;SDS011;62246;50.938;4.058;2022-09-28T10:40:45;4.90;;;1.80;;
53873;SDS011;62246;50.938;4.058;2022-09-28T10:46:25;4.88;;;1.60;;
53873;SDS011;62246;50.938;4.058;2022-09-28T10:51:43;8.65;;;2.05;;
53873;SDS011;62246;50.938;4.058;2022-09-28T10:54:14;10.65;;;2.88;;
53873;SDS011;62246;50.938;4.058;2022-09-28T10:56:42;9.95;;;2.88;;
53873;SDS011;62246;50.938;4.058;2022-09-28T10:59:21;7.07;;;2.30;;
53873;SDS011;62246;50.938;4.058;2022-09-28T11:01:47;8.80;;;2.30;;
53873;SDS011;62246;50.938;4.058;2022-09-28T11:04:19;6.00;;;1.53;;
53873;SDS011;62246;50.938;4.058;2022-09-28T11:06:48;6.28;;;2.08;;
53873;SDS011;62246;50.938;4.058;2022-09-28T11:09:23;6.70;;;1.85;;
53873;SDS011;62246;50.938;4.058;2022-09-28T11:11:54;8.45;;;2.55;;
53873;SDS011;62246;50.938;4.058;2022-09-28T11:14:54;9.60;;;2.20;;
53873;SDS011;62246;50.938;4.058;2022-09-28T11:17:36;7.55;;;2.00;;
53873;SDS011;62246;50.938;4.058;2022-09-28T11:23:18;4.28;;;0.82;;
53873;SDS011;62246;50.938;4.058;2022-09-28T11:26:06;7.70;;;0.88;;
53873;SDS011;62246;50.938;4.058;2022-09-28T11:28:34;2.28;;;0.60;;
53873;SDS011;62246;50.938;4.058;2022-09-28T11:31:01;3.33;;;0.82;;
53873;SDS011;62246;50.938;4.058;2022-09-28T11:33:40;1.50;;;0.70;;
53873;SDS011;62246;50.938;4.058;2022-09-28T11:36:15;5.25;;;0.93;;
53873;SDS011;62246;50.938;4.058;2022-09-28T11:38:57;7.57;;;1.42;;
53873;SDS011;62246;50.938;4.058;2022-09-28T11:44:43;4.72;;;1.35;;
53873;SDS011;62246;50.938;4.058;2022-09-28T11:50:02;2.58;;;1.08;;
53873;SDS011;62246;50.938;4.058;2022-09-28T11:55:39;6.68;;;1.50;;
53873;SDS011;62246;50.938;4.058;2022-09-28T12:01:02;7.82;;;2.00;;
53873;SDS011;62246;50.938;4.058;2022-09-28T12:03:34;4.70;;;1.70;;
53873;SDS011;62246;50.938;4.058;2022-09-28T12:06:06;3.25;;;1.63;;
53873;SDS011;62246;50.938;4.058;2022-09-28T12:11:38;7.60;;;2.20;;
53873;SDS011;62246;50.938;4.058;2022-09-28T12:14:09;6.97;;;2.03;;
53873;SDS011;62246;50.938;4.058;2022-09-28T12:16:45;6.40;;;2.08;;
53873;SDS011;62246;50.938;4.058;2022-09-28T12:19:17;4.38;;;1.50;;
53873;SDS011;62246;50.938;4.058;2022-09-28T12:21:50;6.03;;;1.75;;
53873;SDS011;62246;50.938;4.058;2022-09-28T12:24:26;3.90;;;1.38;;
53873;SDS011;62246;50.938;4.058;2022-09-28T12:27:10;5.40;;;1.88;;
53873;SDS011;62246;50.938;4.058;2022-09-28T12:29:45;2.92;;;1.15;;
53873;SDS011;62246;50.938;4.058;2022-09-28T12:44:20;1.40;;;0.75;;
53873;SDS011;62246;50.938;4.058;2022-09-28T12:49:43;7.25;;;1.60;;
53873;SDS011;62246;50.938;4.058;2022-09-28T12:55:29;4.07;;;1.10;;
53873;SDS011;62246;50.938;4.058;2022-09-28T12:58:32;3.25;;;0.88;;
53873;SDS011;62246;50.938;4.058;2022-09-28T13:03:55;2.13;;;0.70;;
53873;SDS011;62246;50.938;4.058;2022-09-28T13:06:53;4.43;;;0.80;;
53873;SDS011;62246;50.938;4.058;2022-09-28T13:09:25;3.17;;;0.80;;
53873;SDS011;62246;50.938;4.058;2022-09-28T13:24:47;2.33;;;0.80;;
53873;SDS011;62246;50.938;4.058;2022-09-28T13:27:14;2.63;;;1.10;;
53873;SDS011;62246;50.938;4.058;2022-09-28T13:29:43;2.90;;;1.30;;
53873;SDS011;62246;50.938;4.058;2022-09-28T13:32:13;2.13;;;0.80;;
53873;SDS011;62246;50.938;4.058;2022-09-28T13:34:40;2.92;;;0.90;;
53873;SDS011;62246;50.938;4.058;2022-09-28T13:39:46;4.03;;;0.90;;
53873;SDS011;62246;50.938;4.058;2022-09-28T13:45:15;3.72;;;1.55;;
53873;SDS011;62246;50.938;4.058;2022-09-28T13:52:48;4.20;;;1.23;;
53873;SDS011;62246;50.938;4.058;2022-09-28T13:55:30;3.17;;;1.15;;
53873;SDS011;62246;50.938;4.058;2022-09-28T14:00:29;2.22;;;0.73;;
53873;SDS011;62246;50.938;4.058;2022-09-28T14:06:27;7.15;;;1.60;;
53873;SDS011;62246;50.938;4.058;2022-09-28T14:16:32;2.05;;;0.98;;
53873;SDS011;62246;50.938;4.058;2022-09-28T14:27:42;5.20;;;1.38;;
53873;SDS011;62246;50.938;4.058;2022-09-28T14:32:37;3.35;;;0.93;;
53873;SDS011;62246;50.938;4.058;2022-09-28T14:37:48;3.38;;;1.00;;
53873;SDS011;62246;50.938;4.058;2022-09-28T14:54:34;2.70;;;0.63;;
53873;SDS011;62246;50.938;4.058;2022-09-28T14:59:25;6.05;;;1.10;;
53873;SDS011;62246;50.938;4.058;2022-09-28T15:04:33;3.67;;;0.82;;
53873;SDS011;62246;50.938;4.058;2022-09-28T15:07:04;2.65;;;0.80;;
53873;SDS011;62246;50.938;4.058;2022-09-28T15:09:42;2.00;;;0.70;;
53873;SDS011;62246;50.938;4.058;2022-09-28T15:12:14;1.70;;;0.80;;
53873;SDS011;62246;50.938;4.058;2022-09-28T15:15:01;6.47;;;0.80;;
53873;SDS011;62246;50.938;4.058;2022-09-28T15:17:35;3.80;;;0.85;;
53873;SDS011;62246;50.938;4.058;2022-09-28T15:22:44;1.85;;;0.88;;
53873;SDS011;62246;50.938;4.058;2022-09-28T15:25:12;6.57;;;1.00;;
53873;SDS011;62246;50.938;4.058;2022-09-28T15:27:39;4.70;;;0.93;;
53873;SDS011;62246;50.938;4.058;2022-09-28T15:32:44;1.80;;;0.80;;
53873;SDS011;62246;50.938;4.058;2022-09-28T15:35:19;4.65;;;1.30;;
53873;SDS011;62246;50.938;4.058;2022-09-28T15:37:47;5.40;;;1.17;;
53873;SDS011;62246;50.938;4.058;2022-09-28T15:40:16;3.28;;;0.93;;
53873;SDS011;62246;50.938;4.058;2022-09-28T15:42:45;2.10;;;1.00;;
53873;SDS011;62246;50.938;4.058;2022-09-28T15:47:50;5.50;;;0.85;;
53873;SDS011;62246;50.938;4.058;2022-09-28T15:50:37;3.65;;;0.85;;
53873;SDS011;62246;50.938;4.058;2022-09-28T15:55:41;4.30;;;0.80;;
53873;SDS011;62246;50.938;4.058;2022-09-28T15:58:18;2.22;;;0.93;;
53873;SDS011;62246;50.938;4.058;2022-09-28T16:00:46;4.25;;;1.20;;
53873;SDS011;62246;50.938;4.058;2022-09-28T16:13:55;4.80;;;1.40;;
53873;SDS011;62246;50.938;4.058;2022-09-28T16:16:50;7.57;;;1.50;;
53873;SDS011;62246;50.938;4.058;2022-09-28T16:19:20;6.22;;;1.77;;
53873;SDS011;62246;50.938;4.058;2022-09-28T16:21:54;4.85;;;1.50;;
53873;SDS011;62246;50.938;4.058;2022-09-28T16:24:26;9.60;;;2.20;;
53873;SDS011;62246;50.938;4.058;2022-09-28T16:27:01;4.78;;;1.45;;
53873;SDS011;62246;50.938;4.058;2022-09-28T16:29:34;5.60;;;1.25;;
53873;SDS011;62246;50.938;4.058;2022-09-28T16:32:37;5.90;;;1.70;;
53873;SDS011;62246;50.938;4.058;2022-09-28T16:37:36;2.13;;;0.88;;
53873;SDS011;62246;50.938;4.058;2022-09-28T16:40:05;2.33;;;0.80;;
53873;SDS011;62246;50.938;4.058;2022-09-28T16:42:30;3.13;;;1.00;;
53873;SDS011;62246;50.938;4.058;2022-09-28T16:44:56;4.63;;;1.00;;
53873;SDS011;62246;50.938;4.058;2022-09-28T16:47:27;4.47;;;1.00;;
53873;SDS011;62246;50.938;4.058;2022-09-28T16:49:58;3.88;;;0.90;;
53873;SDS011;62246;50.938;4.058;2022-09-28T16:52:30;4.72;;;0.80;;
53873;SDS011;62246;50.938;4.058;2022-09-28T16:55:14;7.40;;;0.90;;
53873;SDS011;62246;50.938;4.058;2022-09-28T16:57:40;4.45;;;1.00;;
53873;SDS011;62246;50.938;4.058;2022-09-28T17:00:13;2.30;;;0.80;;
53873;SDS011;62246;50.938;4.058;2022-09-28T17:02:44;4.43;;;1.10;;
53873;SDS011;62246;50.938;4.058;2022-09-28T17:05:14;4.72;;;0.82;;
53873;SDS011;62246;50.938;4.058;2022-09-28T17:07:41;6.53;;;1.23;;
53873;SDS011;62246;50.938;4.058;2022-09-28T17:10:21;6.10;;;1.10;;
53873;SDS011;62246;50.938;4.058;2022-09-28T17:12:51;5.05;;;1.02;;
53873;SDS011;62246;50.938;4.058;2022-09-28T17:15:16;2.60;;;0.90;;
53873;SDS011;62246;50.938;4.058;2022-09-28T17:17:44;5.70;;;1.13;;
53873;SDS011;62246;50.938;4.058;2022-09-28T17:20:21;5.53;;;1.10;;
53873;SDS011;62246;50.938;4.058;2022-09-28T17:22:49;3.42;;;1.13;;
53873;SDS011;62246;50.938;4.058;2022-09-28T17:25:15;5.65;;;0.95;;
53873;SDS011;62246;50.938;4.058;2022-09-28T17:27:42;6.72;;;1.30;;
53873;SDS011;62246;50.938;4.058;2022-09-28T17:30:10;4.15;;;1.33;;
53873;SDS011;62246;50.938;4.058;2022-09-28T17:32:37;3.63;;;1.33;;
53873;SDS011;62246;50.938;4.058;2022-09-28T17:35:03;5.82;;;1.25;;
53873;SDS011;62246;50.938;4.058;2022-09-28T17:37:30;3.67;;;1.40;;
53873;SDS011;62246;50.938;4.058;2022-09-28T17:39:58;8.90;;;2.08;;
53873;SDS011;62246;50.938;4.058;2022-09-28T17:42:24;8.60;;;1.75;;
53873;SDS011;62246;50.938;4.058;2022-09-28T17:44:49;4.18;;;1.48;;
53873;SDS011;62246;50.938;4.058;2022-09-28T17:47:15;5.82;;;1.67;;
53873;SDS011;62246;50.938;4.058;2022-09-28T17:49:40;9.13;;;2.15;;
53873;SDS011;62246;50.938;4.058;2022-09-28T17:52:06;7.53;;;2.28;;
53873;SDS011;62246;50.938;4.058;2022-09-28T17:54:33;7.47;;;2.65;;
53873;SDS011;62246;50.938;4.058;2022-09-28T17:56:59;8.05;;;2.40;;
53873;SDS011;62246;50.938;4.058;2022-09-28T17:59:24;8.07;;;2.28;;
53873;SDS011;62246;50.938;4.058;2022-09-28T18:01:52;10.93;;;2.63;;
53873;SDS011;62246;50.938;4.058;2022-09-28T18:04:17;10.38;;;3.05;;
53873;SDS011;62246;50.938;4.058;2022-09-28T18:06:42;12.32;;;3.75;;
53873;SDS011;62246;50.938;4.058;2022-09-28T18:09:10;13.88;;;3.45;;
53873;SDS011;62246;50.938;4.058;2022-09-28T18:11:38;18.00;;;3.30;;
53873;SDS011;62246;50.938;4.058;2022-09-28T18:14:06;11.38;;;3.42;;
53873;SDS011;62246;50.938;4.058;2022-09-28T18:16:32;7.28;;;2.50;;
53873;SDS011;62246;50.938;4.058;2022-09-28T18:18:57;9.10;;;2.28;;
53873;SDS011;62246;50.938;4.058;2022-09-28T18:21:23;7.68;;;2.30;;
53873;SDS011;62246;50.938;4.058;2022-09-28T18:23:49;9.00;;;1.90;;
53873;SDS011;62246;50.938;4.058;2022-09-28T18:26:15;4.50;;;1.60;;
53873;SDS011;62246;50.938;4.058;2022-09-28T18:28:43;4.93;;;1.65;;
53873;SDS011;62246;50.938;4.058;2022-09-28T18:31:10;3.17;;;1.40;;
53873;SDS011;62246;50.938;4.058;2022-09-28T18:33:38;3.33;;;1.33;;
53873;SDS011;62246;50.938;4.058;2022-09-28T18:36:04;6.10;;;1.40;;
53873;SDS011;62246;50.938;4.058;2022-09-28T18:38:32;5.43;;;1.48;;
53873;SDS011;62246;50.938;4.058;2022-09-28T18:41:12;5.68;;;1.50;;
53873;SDS011;62246;50.938;4.058;2022-09-28T18:43:39;4.95;;;1.50;;
53873;SDS011;62246;50.938;4.058;2022-09-28T18:46:09;6.93;;;1.65;;
53873;SDS011;62246;50.938;4.058;2022-09-28T18:48:35;5.55;;;1.83;;